Time;durP1;ratioP1;P1;durP2;ratioP2;P2;SDS_P1;SDS_P2;PMS_P1;PMS_P2;Temp;Humidity;BMP_temperature;BMP_pressure;BME280_temperature;BME280_humidity;BME280_pressure;Samples;Min_cycle;Max_cycle;Signal;HPM_P1;HPM_P2
2021/01/30 00:01:47;;;;;;;46.47;14.88;;;;;;;;;;4971567;28;20095;-54
2021/01/30 00:04:13;;;;;;;52.70;15.77;;;;;;;;;;4970907;28;20168;-54
2021/01/30 00:06:46;;;;;;;55.28;16.55;;;;;;;;;;4969986;28;20057;-51
2021/01/30 00:09:12;;;;;;;44.47;14.90;;;;;;;;;;4972832;28;20150;-55
2021/01/30 00:11:38;;;;;;;49.17;14.95;;;;;;;;;;4968388;28;20675;-56
2021/01/30 00:14:04;;;;;;;56.22;14.75;;;;;;;;;;4969028;28;20089;-53
2021/01/30 00:16:30;;;;;;;64.78;15.70;;;;;;;;;;4968728;28;20565;-56
2021/01/30 00:18:55;;;;;;;40.78;15.45;;;;;;;;;;4972486;28;20046;-55
2021/01/30 00:21:21;;;;;;;54.08;15.68;;;;;;;;;;4971243;28;20045;-55
2021/01/30 00:23:47;;;;;;;49.65;15.00;;;;;;;;;;4972433;28;20050;-51
2021/01/30 00:26:13;;;;;;;61.60;16.60;;;;;;;;;;4967120;28;20042;-55
2021/01/30 00:28:39;;;;;;;79.35;17.08;;;;;;;;;;4973961;28;20149;-54
2021/01/30 00:31:05;;;;;;;55.80;16.67;;;;;;;;;;4974318;28;20069;-55
2021/01/30 00:33:30;;;;;;;57.92;16.15;;;;;;;;;;4974707;28;20121;-55
2021/01/30 00:35:56;;;;;;;56.83;16.83;;;;;;;;;;4975679;28;20156;-54
2021/01/30 00:38:22;;;;;;;69.63;16.27;;;;;;;;;;4973473;28;20571;-53
2021/01/30 00:40:48;;;;;;;53.78;16.90;;;;;;;;;;4973157;28;20057;-53
2021/01/30 00:43:14;;;;;;;60.13;13.82;;;;;;;;;;4972728;28;20407;-53
2021/01/30 00:45:40;;;;;;;51.25;14.07;;;;;;;;;;4972676;28;20038;-58
2021/01/30 00:48:06;;;;;;;51.22;14.38;;;;;;;;;;4982021;28;20054;-55
2021/01/30 00:50:32;;;;;;;58.03;15.02;;;;;;;;;;4972374;28;20118;-56
2021/01/30 00:52:58;;;;;;;34.70;12.75;;;;;;;;;;4984833;28;20595;-53
2021/01/30 00:55:24;;;;;;;52.65;13.30;;;;;;;;;;4979411;28;20042;-54
2021/01/30 00:57:50;;;;;;;51.17;14.25;;;;;;;;;;4982062;28;20078;-53
2021/01/30 01:00:18;;;;;;;53.72;13.48;;;;;;;;;;4983180;28;20069;-54
2021/01/30 01:02:43;;;;;;;37.45;13.48;;;;;;;;;;4985307;28;20057;-53
2021/01/30 01:05:10;;;;;;;48.45;13.50;;;;;;;;;;4981724;28;20042;-53
2021/01/30 01:07:36;;;;;;;43.30;13.27;;;;;;;;;;4975628;28;20515;-53
2021/01/30 01:10:01;;;;;;;67.20;14.10;;;;;;;;;;4984766;28;20515;-55
2021/01/30 01:12:27;;;;;;;49.00;14.30;;;;;;;;;;4984801;28;20732;-52
2021/01/30 01:14:53;;;;;;;50.00;14.43;;;;;;;;;;4982930;28;20042;-55
2021/01/30 01:17:19;;;;;;;58.33;15.43;;;;;;;;;;4972161;28;20050;-53
2021/01/30 01:19:45;;;;;;;49.05;15.38;;;;;;;;;;4984765;28;20057;-52
2021/01/30 01:22:11;;;;;;;48.53;14.57;;;;;;;;;;4982912;28;20142;-52
2021/01/30 01:24:37;;;;;;;56.10;15.55;;;;;;;;;;4983655;28;20075;-52
2021/01/30 01:27:03;;;;;;;51.85;16.10;;;;;;;;;;4984181;28;20538;-54
2021/01/30 01:29:28;;;;;;;53.40;14.07;;;;;;;;;;4983835;28;20050;-56
2021/01/30 01:31:55;;;;;;;46.33;13.85;;;;;;;;;;4984023;28;20050;-53
2021/01/30 01:34:22;;;;;;;43.53;14.85;;;;;;;;;;4985941;28;20070;-54
2021/01/30 01:36:55;;;;;;;63.30;15.10;;;;;;;;;;4985564;28;20458;-54
2021/01/30 01:39:21;;;;;;;52.78;14.52;;;;;;;;;;4982085;28;20038;-54
2021/01/30 01:41:51;;;;;;;44.30;13.85;;;;;;;;;;4981275;28;20034;-54
2021/01/30 01:44:17;;;;;;;51.53;17.73;;;;;;;;;;4972122;28;20190;-54
2021/01/30 01:46:42;;;;;;;46.28;13.82;;;;;;;;;;4974516;28;20411;-55
2021/01/30 01:49:18;;;;;;;50.10;15.40;;;;;;;;;;4984401;28;22674;-54
2021/01/30 01:51:45;;;;;;;44.58;14.10;;;;;;;;;;4983980;28;20038;-52
2021/01/30 01:54:21;;;;;;;52.70;14.02;;;;;;;;;;4982531;28;20040;-55
2021/01/30 01:56:49;;;;;;;57.28;13.60;;;;;;;;;;4983166;28;20033;-55
2021/01/30 01:59:15;;;;;;;53.15;14.60;;;;;;;;;;4983491;28;20112;-53
2021/01/30 02:01:42;;;;;;;54.28;14.60;;;;;;;;;;4984160;28;20140;-51
2021/01/30 02:04:10;;;;;;;36.70;13.88;;;;;;;;;;4980747;28;20042;-52
2021/01/30 02:06:38;;;;;;;46.15;13.88;;;;;;;;;;4982159;28;20048;-51
2021/01/30 02:09:06;;;;;;;38.85;12.90;;;;;;;;;;4985046;28;20156;-52
2021/01/30 02:11:32;;;;;;;46.83;13.50;;;;;;;;;;4982112;28;20041;-52
2021/01/30 02:13:58;;;;;;;50.90;14.93;;;;;;;;;;4983918;28;20042;-54
2021/01/30 02:16:36;;;;;;;44.70;13.27;;;;;;;;;;4981736;28;20085;-55
2021/01/30 02:19:20;;;;;;;54.05;14.63;;;;;;;;;;4979916;28;20407;-53
2021/01/30 02:21:46;;;;;;;48.70;14.63;;;;;;;;;;4981202;28;20042;-56
2021/01/30 02:24:27;;;;;;;56.25;16.30;;;;;;;;;;4979053;28;20049;-55
2021/01/30 02:27:11;;;;;;;44.47;12.90;;;;;;;;;;4981405;28;20046;-52
2021/01/30 02:30:00;;;;;;;45.28;14.25;;;;;;;;;;4981714;28;20045;-56
2021/01/30 02:32:33;;;;;;;43.50;14.40;;;;;;;;;;4975859;28;20108;-55
2021/01/30 02:35:08;;;;;;;35.00;10.90;;;;;;;;;;4983581;28;20038;-53
2021/01/30 02:37:43;;;;;;;41.97;13.75;;;;;;;;;;4980528;28;20125;-54
2021/01/30 02:40:12;;;;;;;34.85;12.63;;;;;;;;;;4980271;28;20046;-54
2021/01/30 02:42:42;;;;;;;34.47;13.07;;;;;;;;;;4982888;28;20056;-54
2021/01/30 02:45:13;;;;;;;42.88;13.27;;;;;;;;;;4976607;28;20120;-55
2021/01/30 02:47:41;;;;;;;50.40;14.52;;;;;;;;;;4977914;28;20430;-53
2021/01/30 02:50:12;;;;;;;38.72;13.52;;;;;;;;;;4980091;28;20201;-56
2021/01/30 02:52:39;;;;;;;44.58;13.35;;;;;;;;;;4981915;28;20121;-53
2021/01/30 02:55:07;;;;;;;57.45;13.75;;;;;;;;;;4981533;28;20041;-54
2021/01/30 02:57:36;;;;;;;37.70;13.73;;;;;;;;;;4983126;28;20042;-52
2021/01/30 03:00:04;;;;;;;42.95;12.70;;;;;;;;;;4991123;28;20076;-51
2021/01/30 03:02:30;;;;;;;44.63;13.95;;;;;;;;;;4992572;28;21083;-53
2021/01/30 03:04:58;;;;;;;43.38;13.40;;;;;;;;;;4988391;28;20105;-53
2021/01/30 03:07:24;;;;;;;46.20;14.55;;;;;;;;;;4979546;28;20710;-53
2021/01/30 03:10:08;;;;;;;48.50;15.13;;;;;;;;;;4981593;28;20045;-54
2021/01/30 03:12:40;;;;;;;44.03;14.20;;;;;;;;;;4983475;28;20100;-52
2021/01/30 03:15:22;;;;;;;40.78;13.38;;;;;;;;;;4980933;28;20117;-55
2021/01/30 03:17:51;;;;;;;50.30;14.70;;;;;;;;;;4980093;28;20046;-55
2021/01/30 03:20:18;;;;;;;46.17;14.40;;;;;;;;;;4982972;28;20049;-55
2021/01/30 03:22:45;;;;;;;43.88;13.23;;;;;;;;;;4979151;28;20112;-53
2021/01/30 03:25:14;;;;;;;55.92;14.35;;;;;;;;;;4996015;28;20054;-56
2021/01/30 03:27:41;;;;;;;50.00;14.85;;;;;;;;;;4994836;28;20054;-56
2021/01/30 03:30:10;;;;;;;48.92;14.73;;;;;;;;;;4980957;28;20045;-52
2021/01/30 03:32:36;;;;;;;51.08;14.38;;;;;;;;;;4981257;28;20544;-53
2021/01/30 03:35:03;;;;;;;34.58;12.38;;;;;;;;;;4980423;28;20042;-52
2021/01/30 03:37:29;;;;;;;40.40;12.95;;;;;;;;;;4981172;28;20039;-54
2021/01/30 03:39:55;;;;;;;51.72;14.43;;;;;;;;;;4980709;28;20531;-52
2021/01/30 03:42:21;;;;;;;46.28;15.85;;;;;;;;;;4980677;28;20133;-52
2021/01/30 03:44:46;;;;;;;44.60;14.38;;;;;;;;;;4980682;28;20057;-53
2021/01/30 03:47:12;;;;;;;51.65;15.80;;;;;;;;;;4980957;28;20423;-53
2021/01/30 03:49:38;;;;;;;46.30;16.08;;;;;;;;;;4982446;28;20041;-53
2021/01/30 03:52:04;;;;;;;43.42;15.57;;;;;;;;;;4982069;28;20068;-54
2021/01/30 03:54:30;;;;;;;40.92;14.13;;;;;;;;;;4979481;28;20049;-52
2021/01/30 03:56:56;;;;;;;48.38;14.55;;;;;;;;;;4982483;28;20054;-53
2021/01/30 03:59:22;;;;;;;45.10;14.95;;;;;;;;;;4981350;28;20049;-53
2021/01/30 04:01:48;;;;;;;47.70;15.13;;;;;;;;;;4979657;28;21175;-54
2021/01/30 04:04:14;;;;;;;46.08;13.65;;;;;;;;;;4982497;28;20158;-54
2021/01/30 04:06:45;;;;;;;45.88;15.25;;;;;;;;;;4980214;28;20415;-53
2021/01/30 04:09:11;;;;;;;39.28;13.88;;;;;;;;;;4981406;28;20042;-53
2021/01/30 04:11:39;;;;;;;45.22;14.68;;;;;;;;;;4982765;28;20046;-52
2021/01/30 04:14:05;;;;;;;51.90;15.85;;;;;;;;;;4983562;28;20041;-53
2021/01/30 04:16:31;;;;;;;48.78;15.43;;;;;;;;;;4983441;28;20034;-53
2021/01/30 04:18:57;;;;;;;44.72;14.73;;;;;;;;;;4984129;28;20038;-52
2021/01/30 04:21:23;;;;;;;48.95;14.82;;;;;;;;;;4982776;28;22745;-52
2021/01/30 04:23:49;;;;;;;53.42;15.07;;;;;;;;;;4982020;28;20050;-53
2021/01/30 04:26:16;;;;;;;56.03;13.52;;;;;;;;;;4982661;28;20080;-55
2021/01/30 04:28:41;;;;;;;46.28;14.25;;;;;;;;;;4981037;28;20065;-54
2021/01/30 04:31:08;;;;;;;52.00;16.48;;;;;;;;;;4985766;28;20042;-53
2021/01/30 04:33:33;;;;;;;50.60;14.38;;;;;;;;;;4981141;28;20041;-55
2021/01/30 04:35:59;;;;;;;41.72;13.95;;;;;;;;;;4978187;28;20049;-52
2021/01/30 04:38:25;;;;;;;47.03;13.43;;;;;;;;;;4981743;28;20061;-56
2021/01/30 04:40:57;;;;;;;44.75;14.48;;;;;;;;;;4981998;28;20043;-56
2021/01/30 04:43:30;;;;;;;40.85;13.60;;;;;;;;;;4977128;28;20173;-52
2021/01/30 04:46:25;;;;;;;61.47;15.52;;;;;;;;;;4980051;28;20041;-54
2021/01/30 04:48:55;;;;;;;56.72;14.00;;;;;;;;;;4972711;28;20739;-52
2021/01/30 04:51:20;;;;;;;44.13;13.88;;;;;;;;;;4981484;28;20045;-54
2021/01/30 04:54:05;;;;;;;50.95;16.83;;;;;;;;;;4977726;28;20042;-56
2021/01/30 04:56:49;;;;;;;62.38;17.63;;;;;;;;;;4979874;28;20046;-56
2021/01/30 04:59:18;;;;;;;64.88;17.38;;;;;;;;;;4981180;28;20109;-54
2021/01/30 05:01:56;;;;;;;61.70;17.70;;;;;;;;;;4981945;28;20046;-54
2021/01/30 05:04:25;;;;;;;52.53;16.90;;;;;;;;;;4979122;28;20136;-53
2021/01/30 05:07:02;;;;;;;49.15;15.60;;;;;;;;;;4980852;28;20030;-54
2021/01/30 05:09:40;;;;;;;51.45;14.95;;;;;;;;;;4981870;28;20049;-54
2021/01/30 05:12:09;;;;;;;52.67;15.82;;;;;;;;;;4981563;28;20859;-53
2021/01/30 05:14:40;;;;;;;47.65;15.35;;;;;;;;;;4983737;28;20523;-54
2021/01/30 05:17:21;;;;;;;60.35;17.55;;;;;;;;;;4984201;28;20042;-55
2021/01/30 05:19:50;;;;;;;53.85;16.10;;;;;;;;;;4983910;28;20846;-52
2021/01/30 05:22:17;;;;;;;48.70;15.32;;;;;;;;;;4984964;28;20039;-53
2021/01/30 05:24:44;;;;;;;50.80;17.08;;;;;;;;;;4982272;28;20378;-53
2021/01/30 05:27:23;;;;;;;56.03;17.73;;;;;;;;;;4984127;28;20050;-52
2021/01/30 05:29:49;;;;;;;50.40;15.50;;;;;;;;;;4983363;28;20038;-54
2021/01/30 05:32:24;;;;;;;63.88;16.95;;;;;;;;;;4966579;28;20047;-53
2021/01/30 05:34:56;;;;;;;58.08;16.00;;;;;;;;;;4962690;28;20775;-54
2021/01/30 05:37:40;;;;;;;63.00;17.05;;;;;;;;;;4965403;28;20054;-55
2021/01/30 05:40:25;;;;;;;55.28;15.45;;;;;;;;;;4965891;28;20039;-52
2021/01/30 05:42:54;;;;;;;61.50;17.40;;;;;;;;;;4964835;28;20042;-52
2021/01/30 05:45:26;;;;;;;49.20;16.90;;;;;;;;;;4964467;28;20051;-53
2021/01/30 05:47:52;;;;;;;55.85;21.35;;;;;;;;;;4974079;28;20116;-52
2021/01/30 05:50:32;;;;;;;64.95;19.30;;;;;;;;;;4968619;28;20053;-51
2021/01/30 05:52:58;;;;;;;54.35;17.75;;;;;;;;;;4983562;28;20086;-54
2021/01/30 05:55:26;;;;;;;55.75;17.50;;;;;;;;;;4966075;28;20050;-54
2021/01/30 05:57:53;;;;;;;65.43;17.92;;;;;;;;;;4965811;28;22813;-54
2021/01/30 06:00:20;;;;;;;60.03;16.65;;;;;;;;;;4963201;28;20062;-55
2021/01/30 06:03:03;;;;;;;62.13;19.48;;;;;;;;;;4964814;28;20095;-52
2021/01/30 06:05:55;;;;;;;57.77;18.67;;;;;;;;;;4964330;28;20051;-54
2021/01/30 06:08:29;;;;;;;58.92;17.10;;;;;;;;;;4961038;28;20563;-54
2021/01/30 06:11:06;;;;;;;50.33;16.23;;;;;;;;;;4963934;28;20034;-54
2021/01/30 06:13:32;;;;;;;56.97;18.15;;;;;;;;;;4961137;28;20753;-53
2021/01/30 06:15:59;;;;;;;52.88;16.50;;;;;;;;;;4962727;28;20053;-53
2021/01/30 06:18:25;;;;;;;68.38;16.63;;;;;;;;;;4964492;28;20368;-52
2021/01/30 06:20:57;;;;;;;55.80;15.82;;;;;;;;;;4976224;28;20045;-52
2021/01/30 06:23:23;;;;;;;53.38;15.95;;;;;;;;;;4966180;28;20049;-52
2021/01/30 06:25:49;;;;;;;58.33;15.82;;;;;;;;;;4969449;28;20039;-53
2021/01/30 06:28:14;;;;;;;55.67;17.27;;;;;;;;;;4964627;28;20078;-53
2021/01/30 06:30:42;;;;;;;64.13;17.63;;;;;;;;;;4961496;28;20042;-52
2021/01/30 06:33:20;;;;;;;53.30;17.05;;;;;;;;;;4969529;28;20044;-55
2021/01/30 06:35:46;;;;;;;50.47;16.75;;;;;;;;;;4972346;28;20042;-52
2021/01/30 06:38:31;;;;;;;55.58;16.58;;;;;;;;;;4963504;28;20042;-53
2021/01/30 06:41:00;;;;;;;59.50;16.50;;;;;;;;;;4964216;28;20729;-54
2021/01/30 06:43:31;;;;;;;55.53;16.90;;;;;;;;;;4979323;28;20069;-51
2021/01/30 06:46:12;;;;;;;57.63;15.75;;;;;;;;;;4961003;28;20039;-52
2021/01/30 06:48:45;;;;;;;46.25;14.70;;;;;;;;;;4963792;28;20062;-51
2021/01/30 06:51:11;;;;;;;;;;;;;;;;;;4964310;28;20575;-51
2021/01/30 06:53:37;;;;;;;51.28;13.85;;;;;;;;;;4962245;28;19928;-53
2021/01/30 06:56:13;;;;;;;43.55;14.93;;;;;;;;;;4962035;28;20125;-51
2021/01/30 06:58:41;;;;;;;44.78;16.98;;;;;;;;;;4977412;28;20842;-52
2021/01/30 07:01:11;;;;;;;49.90;14.07;;;;;;;;;;4962218;28;20043;-53
2021/01/30 07:03:51;;;;;;;56.33;16.02;;;;;;;;;;4960458;28;20061;-52
2021/01/30 07:06:37;;;;;;;43.72;14.15;;;;;;;;;;4962237;28;20050;-52
2021/01/30 07:09:03;;;;;;;56.17;15.07;;;;;;;;;;4975768;28;20395;-52
2021/01/30 07:11:29;;;;;;;60.25;15.07;;;;;;;;;;4962091;28;20039;-54
2021/01/30 07:13:55;;;;;;;54.28;16.95;;;;;;;;;;4959898;28;20047;-51
2021/01/30 07:16:27;;;;;;;50.80;14.10;;;;;;;;;;4957818;28;20051;-54
2021/01/30 07:19:11;;;;;;;52.33;16.10;;;;;;;;;;4961258;28;20135;-52
2021/01/30 07:21:44;;;;;;;65.65;17.88;;;;;;;;;;4961943;28;20046;-52
2021/01/30 07:24:15;;;;;;;46.15;15.60;;;;;;;;;;4962946;28;20050;-51
2021/01/30 07:26:44;;;;;;;48.75;15.80;;;;;;;;;;4959647;28;20042;-52
2021/01/30 07:29:33;;;;;;;69.65;17.58;;;;;;;;;;4975023;28;20473;-51
2021/01/30 07:32:16;;;;;;;48.20;14.30;;;;;;;;;;4959488;28;20097;-52
2021/01/30 07:35:00;;;;;;;47.60;16.35;;;;;;;;;;4977447;28;20052;-51
2021/01/30 07:37:46;;;;;;;52.75;16.33;;;;;;;;;;4979276;28;20046;-52
2021/01/30 07:40:15;;;;;;;62.88;16.95;;;;;;;;;;4980913;28;20092;-55
2021/01/30 07:42:46;;;;;;;53.70;16.88;;;;;;;;;;4978774;28;20073;-53
2021/01/30 07:45:21;;;;;;;49.03;17.17;;;;;;;;;;4977101;28;20793;-55
2021/01/30 07:47:49;;;;;;;55.75;16.90;;;;;;;;;;4978382;28;20068;-52
2021/01/30 07:50:24;;;;;;;55.53;15.73;;;;;;;;;;4977393;28;20097;-51
2021/01/30 07:52:56;;;;;;;43.92;14.55;;;;;;;;;;4977161;28;20153;-54
2021/01/30 07:55:23;;;;;;;49.80;14.38;;;;;;;;;;4976869;28;20074;-51
2021/01/30 07:57:56;;;;;;;51.78;15.90;;;;;;;;;;4978875;28;20030;-54
2021/01/30 08:00:22;;;;;;;;;;;;;;;;;;4979149;28;20562;-51
2021/01/30 08:03:07;;;;;;;60.75;15.68;;;;;;;;;;4977705;28;19913;-52
2021/01/30 08:05:36;;;;;;;58.13;17.02;;;;;;;;;;4978814;28;20046;-51
2021/01/30 08:08:11;;;;;;;48.80;15.13;;;;;;;;;;4980484;28;20059;-52
2021/01/30 08:10:55;;;;;;;53.10;16.92;;;;;;;;;;4980978;28;20117;-55
2021/01/30 08:13:32;;;;;;;46.65;14.13;;;;;;;;;;4980315;28;20480;-52
2021/01/30 08:16:16;;;;;;;46.92;15.15;;;;;;;;;;4981854;28;20427;-55
2021/01/30 08:18:43;;;;;;;59.75;15.75;;;;;;;;;;4980011;28;20050;-52
2021/01/30 08:21:15;;;;;;;56.08;16.08;;;;;;;;;;4980717;28;20038;-52
2021/01/30 08:23:44;;;;;;;47.55;15.32;;;;;;;;;;4977384;28;20068;-55
2021/01/30 08:26:17;;;;;;;48.42;14.73;;;;;;;;;;4980011;28;20034;-51
2021/01/30 08:29:06;;;;;;;38.17;13.32;;;;;;;;;;4977227;28;20094;-52
2021/01/30 08:31:42;;;;;;;45.05;14.07;;;;;;;;;;4959410;28;20046;-52
2021/01/30 08:34:10;;;;;;;44.72;14.40;;;;;;;;;;4961691;28;20035;-52
2021/01/30 08:36:36;;;;;;;43.33;13.73;;;;;;;;;;4957069;28;20050;-51
2021/01/30 08:39:04;;;;;;;51.28;14.90;;;;;;;;;;4958361;28;20054;-53
2021/01/30 08:41:39;;;;;;;64.20;15.88;;;;;;;;;;4958002;28;20224;-52
2021/01/30 08:44:05;;;;;;;42.22;12.23;;;;;;;;;;4957771;28;20081;-55
2021/01/30 08:46:32;;;;;;;66.45;13.98;;;;;;;;;;4957171;28;20046;-54
2021/01/30 08:49:04;;;;;;;37.88;12.85;;;;;;;;;;4962199;28;20233;-52
2021/01/30 08:51:30;;;;;;;49.22;14.25;;;;;;;;;;4962977;28;20174;-55
2021/01/30 08:53:57;;;;;;;52.13;14.18;;;;;;;;;;4963569;28;20097;-54
2021/01/30 08:56:41;;;;;;;42.80;13.07;;;;;;;;;;4961725;28;20053;-54
2021/01/30 08:59:10;;;;;;;49.67;13.52;;;;;;;;;;4964550;28;20043;-51
2021/01/30 09:01:39;;;;;;;39.40;13.25;;;;;;;;;;4964663;28;20046;-54
2021/01/30 09:04:24;;;;;;;37.78;12.05;;;;;;;;;;4961934;28;20253;-53
2021/01/30 09:06:55;;;;;;;53.65;15.52;;;;;;;;;;4970134;28;20891;-54
2021/01/30 09:09:25;;;;;;;44.20;12.95;;;;;;;;;;4964655;28;20038;-55
2021/01/30 09:11:52;;;;;;;39.20;12.55;;;;;;;;;;4961581;28;20798;-55
2021/01/30 09:14:18;;;;;;;42.45;12.82;;;;;;;;;;4962482;28;20081;-55
2021/01/30 09:16:44;;;;;;;45.38;13.43;;;;;;;;;;4966011;28;20133;-56
2021/01/30 09:19:16;;;;;;;54.05;13.18;;;;;;;;;;4975963;28;20109;-53
2021/01/30 09:21:52;;;;;;;40.10;13.23;;;;;;;;;;4981299;28;20129;-55
2021/01/30 09:24:27;;;;;;;46.25;13.13;;;;;;;;;;4979548;28;20054;-56
2021/01/30 09:27:02;;;;;;;39.97;12.70;;;;;;;;;;4962611;28;20834;-55
2021/01/30 09:29:42;;;;;;;43.88;11.73;;;;;;;;;;4962115;28;20066;-55
2021/01/30 09:32:08;;;;;;;39.22;11.93;;;;;;;;;;4963101;28;20035;-55
2021/01/30 09:34:45;;;;;;;43.38;10.88;;;;;;;;;;4960439;28;20039;-53
2021/01/30 09:37:25;;;;;;;40.00;12.50;;;;;;;;;;4963760;28;20134;-54
2021/01/30 09:39:55;;;;;;;45.78;11.27;;;;;;;;;;4981998;28;20042;-56
2021/01/30 09:42:21;;;;;;;42.78;11.30;;;;;;;;;;4983338;28;20053;-55
2021/01/30 09:44:59;;;;;;;52.03;14.60;;;;;;;;;;4980825;28;20522;-55
2021/01/30 09:47:25;;;;;;;40.85;12.65;;;;;;;;;;4979915;28;20057;-53
2021/01/30 09:50:00;;;;;;;45.40;12.68;;;;;;;;;;4996278;28;20046;-52
2021/01/30 09:52:26;;;;;;;39.72;12.57;;;;;;;;;;4980614;28;20995;-54
2021/01/30 09:54:56;;;;;;;43.42;13.57;;;;;;;;;;4977408;28;20050;-55
2021/01/30 09:57:23;;;;;;;46.92;11.27;;;;;;;;;;4980875;28;20041;-54
2021/01/30 09:59:59;;;;;;;39.03;11.77;;;;;;;;;;4978536;28;20073;-52
2021/01/30 10:02:27;;;;;;;46.25;11.77;;;;;;;;;;4980307;28;20073;-53
2021/01/30 10:05:14;;;;;;;45.78;14.48;;;;;;;;;;4981405;28;20064;-54
2021/01/30 10:07:41;;;;;;;38.28;12.05;;;;;;;;;;4982358;28;20188;-52
2021/01/30 10:10:25;;;;;;;34.65;12.00;;;;;;;;;;4985957;28;20058;-55
2021/01/30 10:12:51;;;;;;;46.75;11.65;;;;;;;;;;4984434;28;20042;-52
2021/01/30 10:15:34;;;;;;;48.55;12.02;;;;;;;;;;4985550;28;20088;-53
2021/01/30 10:18:15;;;;;;;43.38;11.85;;;;;;;;;;4983225;28;20065;-54
2021/01/30 10:20:42;;;;;;;43.33;11.40;;;;;;;;;;4983181;28;20049;-55
2021/01/30 10:23:09;;;;;;;42.47;12.93;;;;;;;;;;4983091;28;20096;-55
2021/01/30 10:25:36;;;;;;;35.25;10.27;;;;;;;;;;4981729;28;20402;-53
2021/01/30 10:28:03;;;;;;;41.70;11.80;;;;;;;;;;4983585;28;20456;-56
2021/01/30 10:30:29;;;;;;;42.85;11.73;;;;;;;;;;4982818;28;20393;-55
2021/01/30 10:32:56;;;;;;;42.05;10.55;;;;;;;;;;4982845;28;20042;-53
2021/01/30 10:35:23;;;;;;;28.75;8.30;;;;;;;;;;4982474;28;20042;-52
2021/01/30 10:37:55;;;;;;;38.97;10.35;;;;;;;;;;4985187;28;20042;-56
2021/01/30 10:40:32;;;;;;;33.88;8.45;;;;;;;;;;4983067;28;20038;-53
2021/01/30 10:43:08;;;;;;;30.85;8.70;;;;;;;;;;4983225;28;20153;-53
2021/01/30 10:45:36;;;;;;;29.55;7.55;;;;;;;;;;4982708;28;20213;-55
2021/01/30 10:48:04;;;;;;;27.67;7.82;;;;;;;;;;4983065;28;20058;-52
2021/01/30 10:50:34;;;;;;;23.17;7.43;;;;;;;;;;4980599;28;20456;-53
2021/01/30 10:53:39;;;;;;;23.40;6.72;;;;;;;;;;4981306;28;20038;-53
2021/01/30 10:56:15;;;;;;;15.13;5.60;;;;;;;;;;4952144;28;20046;-53
2021/01/30 10:58:42;;;;;;;21.77;6.30;;;;;;;;;;4953289;28;20101;-56
2021/01/30 11:01:07;;;;;;;18.73;5.93;;;;;;;;;;4970059;28;20352;-51
2021/01/30 11:03:43;;;;;;;17.88;5.75;;;;;;;;;;4981744;28;20038;-52
2021/01/30 11:06:17;;;;;;;22.55;5.97;;;;;;;;;;4983774;28;20046;-50
2021/01/30 11:08:43;;;;;;;29.63;7.25;;;;;;;;;;4980792;28;20141;-51
2021/01/30 11:11:25;;;;;;;23.17;6.88;;;;;;;;;;4982096;28;20070;-54
2021/01/30 11:13:51;;;;;;;22.70;6.28;;;;;;;;;;4980706;28;20053;-54
2021/01/30 11:16:21;;;;;;;17.80;5.93;;;;;;;;;;4983126;28;20042;-55
2021/01/30 11:18:48;;;;;;;20.88;5.85;;;;;;;;;;4982981;28;20095;-52
2021/01/30 11:21:29;;;;;;;21.20;6.18;;;;;;;;;;4982706;28;20043;-54
2021/01/30 11:23:55;;;;;;;27.02;6.55;;;;;;;;;;4978863;28;20062;-54
2021/01/30 11:26:30;;;;;;;15.73;5.50;;;;;;;;;;4981162;28;20053;-54
2021/01/30 11:28:57;;;;;;;20.50;6.10;;;;;;;;;;4978152;28;20136;-51
2021/01/30 11:31:23;;;;;;;14.90;5.18;;;;;;;;;;4993149;28;20083;-53
2021/01/30 11:33:51;;;;;;;17.95;5.07;;;;;;;;;;4984312;28;20037;-53
2021/01/30 11:36:17;;;;;;;29.27;6.13;;;;;;;;;;4983188;28;20098;-52
2021/01/30 11:38:44;;;;;;;29.02;7.07;;;;;;;;;;4986040;28;20042;-52
2021/01/30 11:41:10;;;;;;;15.90;5.35;;;;;;;;;;4984812;28;22801;-54
2021/01/30 11:43:36;;;;;;;21.40;6.18;;;;;;;;;;4975719;28;20415;-51
2021/01/30 11:46:02;;;;;;;18.95;6.00;;;;;;;;;;4995347;28;20049;-54
2021/01/30 11:48:28;;;;;;;16.63;5.50;;;;;;;;;;4983566;28;20053;-55
2021/01/30 11:50:54;;;;;;;19.15;4.85;;;;;;;;;;4983667;28;20295;-51
2021/01/30 11:53:22;;;;;;;16.17;5.50;;;;;;;;;;4983461;28;20125;-51
2021/01/30 11:55:48;;;;;;;18.25;5.47;;;;;;;;;;4985022;28;20594;-51
2021/01/30 11:58:15;;;;;;;14.95;5.35;;;;;;;;;;4983004;28;20110;-52
2021/01/30 12:00:41;;;;;;;18.38;5.68;;;;;;;;;;4982859;28;20050;-54
2021/01/30 12:03:11;;;;;;;13.02;5.05;;;;;;;;;;4983187;28;20065;-53
2021/01/30 12:05:37;;;;;;;18.40;5.40;;;;;;;;;;4981009;28;20046;-53
2021/01/30 12:08:03;;;;;;;21.05;6.05;;;;;;;;;;4982805;28;20069;-52
2021/01/30 12:10:29;;;;;;;13.60;4.93;;;;;;;;;;4981428;28;20046;-52
2021/01/30 12:12:55;;;;;;;17.00;5.45;;;;;;;;;;4982973;28;20058;-53
2021/01/30 12:15:21;;;;;;;18.45;5.53;;;;;;;;;;4981750;28;20217;-55
2021/01/30 12:17:47;;;;;;;16.75;4.60;;;;;;;;;;4982684;28;20145;-53
2021/01/30 12:20:19;;;;;;;16.80;4.85;;;;;;;;;;4982429;28;20046;-55
2021/01/30 12:22:45;;;;;;;17.33;5.20;;;;;;;;;;4982128;28;20616;-55
2021/01/30 12:25:12;;;;;;;18.90;5.70;;;;;;;;;;4987707;28;20042;-54
2021/01/30 12:27:40;;;;;;;22.33;5.88;;;;;;;;;;4986897;28;20097;-53
2021/01/30 12:30:06;;;;;;;15.80;5.25;;;;;;;;;;4989070;28;20053;-53
2021/01/30 12:32:32;;;;;;;17.30;5.65;;;;;;;;;;4986486;28;20047;-52
2021/01/30 12:34:58;;;;;;;14.98;4.93;;;;;;;;;;4985413;28;20077;-54
2021/01/30 12:37:24;;;;;;;17.02;4.75;;;;;;;;;;4986411;28;20076;-53
2021/01/30 12:39:50;;;;;;;16.73;5.20;;;;;;;;;;4987814;28;20038;-52
2021/01/30 12:42:15;;;;;;;22.88;5.53;;;;;;;;;;4987282;28;20045;-53
2021/01/30 12:44:41;;;;;;;17.58;5.38;;;;;;;;;;4985735;28;20153;-56
2021/01/30 12:47:07;;;;;;;23.42;5.32;;;;;;;;;;4987121;28;20145;-53
2021/01/30 12:49:33;;;;;;;16.20;5.35;;;;;;;;;;4985887;28;20575;-55
2021/01/30 12:51:59;;;;;;;16.92;5.70;;;;;;;;;;4985920;28;20093;-54
2021/01/30 12:54:25;;;;;;;19.65;6.43;;;;;;;;;;4986940;28;20053;-53
2021/01/30 12:56:51;;;;;;;19.95;6.47;;;;;;;;;;4986635;28;20133;-54
2021/01/30 12:59:17;;;;;;;18.73;5.53;;;;;;;;;;4984288;28;20050;-55
2021/01/30 13:01:43;;;;;;;17.02;4.72;;;;;;;;;;4985591;28;20042;-52
2021/01/30 13:04:09;;;;;;;18.45;7.80;;;;;;;;;;4982062;28;20758;-52
2021/01/30 13:06:35;;;;;;;17.10;6.28;;;;;;;;;;4984013;28;20142;-56
2021/01/30 13:09:01;;;;;;;17.73;5.00;;;;;;;;;;4986654;28;20066;-56
2021/01/30 13:11:27;;;;;;;21.17;7.55;;;;;;;;;;4984801;28;20047;-55
2021/01/30 13:13:53;;;;;;;20.55;6.32;;;;;;;;;;4986671;28;20042;-52
2021/01/30 13:16:19;;;;;;;16.80;5.45;;;;;;;;;;4983421;28;20460;-54
2021/01/30 13:18:45;;;;;;;17.52;5.82;;;;;;;;;;4985728;28;20069;-53
2021/01/30 13:21:10;;;;;;;15.18;5.72;;;;;;;;;;4982891;28;20085;-54
2021/01/30 13:23:37;;;;;;;26.17;6.28;;;;;;;;;;4984102;28;20488;-54
2021/01/30 13:26:06;;;;;;;18.73;5.60;;;;;;;;;;4985110;28;20042;-53
2021/01/30 13:28:33;;;;;;;21.92;5.85;;;;;;;;;;4985446;28;20116;-51
2021/01/30 13:30:59;;;;;;;17.20;5.78;;;;;;;;;;4985728;28;20043;-52
2021/01/30 13:33:25;;;;;;;18.02;5.85;;;;;;;;;;4984870;28;20539;-55
2021/01/30 13:35:51;;;;;;;22.95;7.18;;;;;;;;;;4985136;28;20031;-52
2021/01/30 13:38:17;;;;;;;25.02;6.35;;;;;;;;;;4985445;28;20086;-52
2021/01/30 13:40:43;;;;;;;18.02;5.55;;;;;;;;;;4985586;28;20502;-51
2021/01/30 13:43:09;;;;;;;27.63;6.32;;;;;;;;;;4984964;28;20046;-52
2021/01/30 13:45:35;;;;;;;15.27;5.50;;;;;;;;;;4983602;28;20030;-54
2021/01/30 13:48:01;;;;;;;17.95;6.28;;;;;;;;;;4983642;28;20079;-52
2021/01/30 13:50:27;;;;;;;19.92;6.05;;;;;;;;;;4986054;28;20038;-52
2021/01/30 13:52:53;;;;;;;21.33;7.63;;;;;;;;;;4983982;28;20450;-53
2021/01/30 13:55:19;;;;;;;17.02;5.10;;;;;;;;;;4983333;28;20042;-51
2021/01/30 13:57:45;;;;;;;17.63;6.60;;;;;;;;;;4984192;28;20147;-53
2021/01/30 14:00:12;;;;;;;17.45;5.88;;;;;;;;;;4984280;28;20038;-52
2021/01/30 14:02:38;;;;;;;19.27;5.63;;;;;;;;;;4983300;28;20514;-50
2021/01/30 14:05:09;;;;;;;14.25;6.03;;;;;;;;;;4984085;28;20046;-51
2021/01/30 14:07:35;;;;;;;18.75;5.72;;;;;;;;;;4983612;28;20082;-53
2021/01/30 14:10:03;;;;;;;16.90;6.13;;;;;;;;;;4984247;28;20046;-52
2021/01/30 14:12:29;;;;;;;21.25;6.45;;;;;;;;;;4983289;28;20124;-52
2021/01/30 14:14:55;;;;;;;18.35;6.25;;;;;;;;;;4983014;28;20046;-52
2021/01/30 14:17:20;;;;;;;15.43;6.05;;;;;;;;;;4981894;28;20133;-55
2021/01/30 14:19:46;;;;;;;16.08;5.93;;;;;;;;;;4983707;28;20058;-53
2021/01/30 14:22:12;;;;;;;22.85;6.38;;;;;;;;;;4984105;28;20096;-54
2021/01/30 14:24:38;;;;;;;24.23;7.45;;;;;;;;;;4982407;28;20054;-52
2021/01/30 14:27:04;;;;;;;15.63;6.18;;;;;;;;;;4985824;28;20043;-51
2021/01/30 14:29:30;;;;;;;16.73;5.32;;;;;;;;;;4983691;28;20042;-52
2021/01/30 14:31:59;;;;;;;16.75;6.18;;;;;;;;;;4984140;28;20056;-52
2021/01/30 14:34:26;;;;;;;14.35;6.65;;;;;;;;;;4983120;28;20042;-54
2021/01/30 14:36:52;;;;;;;17.23;6.45;;;;;;;;;;4982938;28;20038;-52